createdAt,value
2019-03-01T00:01:38.968Z,70.13
2019-03-01T00:04:18.494Z,68.10
2019-03-01T00:07:35.573Z,63.90
2019-03-01T00:10:28.464Z,64.87
2019-03-01T00:13:54.820Z,74.83
2019-03-01T00:17:05.364Z,71.53
2019-03-01T00:20:31.729Z,64.03
2019-03-01T00:23:30.392Z,60.37
2019-03-01T00:26:14.070Z,66.40
2019-03-01T00:29:40.689Z,68.20
2019-03-01T00:32:54.919Z,68.23
2019-03-01T00:36:05.648Z,67.50
2019-03-01T00:38:55.678Z,66.30
2019-03-01T00:41:53.163Z,63.50
2019-03-01T00:44:43.451Z,62.93
2019-03-01T00:47:12.783Z,66.00
2019-03-01T00:49:42.126Z,66.63
2019-03-01T00:52:12.006Z,61.57
2019-03-01T00:54:41.306Z,57.57
2019-03-01T00:57:10.632Z,60.10
2019-03-01T00:59:39.928Z,64.97
2019-03-01T01:02:09.258Z,60.93
2019-03-01T01:04:38.560Z,55.70
2019-03-01T01:07:07.856Z,58.63
2019-03-01T01:09:37.192Z,60.07
2019-03-01T01:12:06.572Z,64.97
2019-03-01T01:14:35.864Z,58.60
2019-03-01T01:17:05.198Z,62.40
2019-03-01T01:19:34.469Z,63.43
2019-03-01T01:22:03.760Z,59.67
2019-03-01T01:24:33.047Z,59.37
2019-03-01T01:27:02.388Z,56.73
2019-03-01T01:29:31.778Z,65.50
2019-03-01T01:32:01.119Z,53.53
2019-03-01T01:34:30.396Z,59.50
2019-03-01T01:36:59.799Z,61.33
2019-03-01T01:39:29.156Z,54.90
2019-03-01T01:41:58.716Z,55.97
2019-03-01T01:44:28.082Z,57.87
2019-03-01T01:46:57.476Z,59.90
2019-03-01T01:49:26.814Z,63.83
2019-03-01T01:51:56.152Z,58.73
2019-03-01T01:54:25.444Z,59.07
2019-03-01T01:56:54.782Z,59.50
2019-03-01T01:59:24.081Z,61.77
2019-03-01T02:01:53.397Z,60.93
2019-03-01T02:04:22.708Z,59.30
2019-03-01T02:06:52.048Z,61.33
2019-03-01T02:09:23.297Z,65.37
2019-03-01T02:11:52.604Z,68.03
2019-03-01T02:14:21.898Z,72.80
2019-03-01T02:16:51.184Z,64.90
2019-03-01T02:19:20.484Z,76.03
2019-03-01T02:21:49.798Z,72.40
2019-03-01T02:24:19.142Z,74.97
2019-03-01T02:26:48.452Z,69.33
2019-03-01T02:29:17.804Z,74.77
2019-03-01T02:31:55.255Z,75.03
2019-03-01T02:34:24.660Z,81.17
2019-03-01T02:36:53.956Z,78.43
2019-03-01T02:39:23.193Z,73.40
2019-03-01T02:41:52.483Z,71.03
2019-03-01T02:44:21.763Z,68.83
2019-03-01T02:46:51.079Z,67.10
2019-03-01T02:49:20.352Z,69.63
2019-03-01T02:51:50.041Z,69.00
2019-03-01T02:54:19.326Z,64.47
2019-03-01T02:56:48.652Z,70.47
2019-03-01T02:59:17.938Z,69.73
2019-03-01T03:01:47.238Z,65.50
2019-03-01T03:04:16.752Z,70.93
2019-03-01T03:06:50.569Z,62.97
2019-03-01T03:09:19.984Z,70.27
2019-03-01T03:11:49.285Z,72.43
2019-03-01T03:14:18.713Z,67.53
2019-03-01T03:16:47.985Z,73.93
2019-03-01T03:19:17.405Z,75.10
2019-03-01T03:21:46.760Z,77.50
2019-03-01T03:24:16.217Z,64.97
2019-03-01T03:26:48.472Z,73.30
2019-03-01T03:29:14.994Z,76.90
2019-03-01T03:31:44.302Z,73.07
2019-03-01T03:34:13.752Z,74.43
2019-03-01T03:36:43.125Z,73.13
2019-03-01T03:39:12.525Z,70.47
2019-03-01T03:41:41.886Z,78.17
2019-03-01T03:44:11.370Z,73.50
2019-03-01T03:46:40.717Z,77.67
2019-03-01T03:49:10.213Z,75.60
2019-03-01T03:51:39.552Z,74.97
2019-03-01T03:54:09.048Z,77.27
2019-03-01T03:56:38.398Z,71.90
2019-03-01T03:59:07.802Z,70.53
2019-03-01T04:01:37.181Z,68.63
2019-03-01T04:04:06.693Z,68.77
2019-03-01T04:06:36.110Z,72.10
2019-03-01T04:09:06.144Z,72.00
2019-03-01T04:11:35.578Z,79.57
2019-03-01T04:14:04.990Z,81.87
2019-03-01T04:16:34.415Z,69.80
2019-03-01T04:19:03.849Z,79.77
2019-03-01T04:21:33.160Z,74.47
2019-03-01T04:24:02.471Z,70.13
2019-03-01T04:26:31.799Z,74.43
2019-03-01T04:29:01.076Z,70.97
2019-03-01T04:31:30.373Z,67.27
2019-03-01T04:33:59.656Z,74.03
2019-03-01T04:36:28.949Z,72.10
2019-03-01T04:38:58.199Z,69.40
2019-03-01T04:41:27.531Z,74.07
2019-03-01T04:43:56.881Z,70.13
2019-03-01T04:46:26.248Z,68.73
2019-03-01T04:48:55.516Z,71.03
2019-03-01T04:51:24.818Z,68.67
2019-03-01T04:53:54.240Z,67.53
2019-03-01T04:56:23.621Z,67.13
2019-03-01T04:58:52.990Z,64.27
2019-03-01T05:01:22.399Z,72.43
2019-03-01T05:03:52.225Z,62.77
2019-03-01T05:06:21.589Z,66.27
2019-03-01T05:08:50.942Z,69.77
2019-03-01T05:11:20.238Z,61.73
2019-03-01T05:13:49.638Z,64.40
2019-03-01T05:16:18.973Z,67.13
2019-03-01T05:18:48.348Z,65.13
2019-03-01T05:21:17.671Z,64.90
2019-03-01T05:23:47.042Z,70.90
2019-03-01T05:26:16.560Z,65.13
2019-03-01T05:28:45.827Z,70.17
2019-03-01T05:31:15.200Z,65.30
2019-03-01T05:33:44.566Z,64.87
2019-03-01T05:36:13.853Z,75.10
2019-03-01T05:38:43.118Z,68.33
2019-03-01T05:41:12.748Z,65.70
2019-03-01T05:43:42.058Z,73.80
2019-03-01T05:46:11.464Z,75.27
2019-03-01T05:48:40.775Z,73.00
2019-03-01T05:51:10.314Z,68.67
2019-03-01T05:53:39.614Z,65.93
2019-03-01T05:56:09.100Z,71.63
2019-03-01T05:58:44.895Z,73.70
2019-03-01T06:01:40.094Z,71.17
2019-03-01T06:04:28.597Z,70.20
2019-03-01T06:07:41.357Z,70.87
2019-03-01T06:10:36.326Z,65.60
2019-03-01T06:13:41.325Z,70.37
2019-03-01T06:16:55.404Z,72.87
2019-03-01T06:20:04.309Z,72.60
2019-03-01T06:22:50.409Z,69.70
2019-03-01T06:26:14.801Z,79.47
2019-03-01T06:29:01.586Z,69.70
2019-03-01T06:31:43.428Z,70.93
2019-03-01T06:34:38.690Z,69.90
2019-03-01T06:38:02.231Z,69.20
2019-03-01T06:41:19.814Z,70.43
2019-03-01T06:44:27.130Z,66.73
2019-03-01T06:47:41.143Z,68.67
2019-03-01T06:50:24.915Z,66.03
2019-03-01T06:52:54.208Z,70.80
2019-03-01T06:55:56.626Z,69.93
2019-03-01T06:58:34.048Z,66.07
2019-03-01T07:01:15.386Z,69.27
2019-03-01T07:03:45.638Z,66.47
2019-03-01T07:06:14.952Z,64.83
2019-03-01T07:08:44.220Z,65.77
2019-03-01T07:11:13.523Z,73.53
2019-03-01T07:13:42.814Z,67.50
2019-03-01T07:16:12.118Z,68.03
2019-03-01T07:18:41.414Z,68.10
2019-03-01T07:21:10.712Z,65.07
2019-03-01T07:23:40.016Z,66.37
2019-03-01T07:26:09.295Z,64.37
2019-03-01T07:28:41.260Z,66.93
2019-03-01T07:31:10.553Z,62.90
2019-03-01T07:33:39.874Z,63.53
2019-03-01T07:36:09.297Z,62.30
2019-03-01T07:38:38.697Z,63.80
2019-03-01T07:41:07.996Z,72.03
2019-03-01T07:43:37.324Z,71.13
2019-03-01T07:46:06.610Z,66.67
2019-03-01T07:48:35.916Z,67.90
2019-03-01T07:51:05.443Z,74.00
2019-03-01T07:53:36.044Z,76.13
2019-03-01T07:56:05.270Z,66.07
2019-03-01T07:58:33.350Z,64.10
2019-03-01T08:01:02.704Z,71.20
2019-03-01T08:03:31.982Z,68.27
2019-03-01T08:06:01.312Z,65.87
2019-03-01T08:08:30.701Z,69.80
2019-03-01T08:11:00.224Z,67.97
2019-03-01T08:13:29.414Z,61.33
2019-03-01T08:15:58.702Z,68.20
2019-03-01T08:18:27.978Z,64.63
2019-03-01T08:20:57.267Z,72.90
2019-03-01T08:23:26.583Z,68.27
2019-03-01T08:25:58.766Z,70.63
2019-03-01T08:28:25.342Z,70.33
2019-03-01T08:30:54.674Z,70.03
2019-03-01T08:33:23.966Z,66.97
2019-03-01T08:35:53.402Z,65.23
2019-03-01T08:38:25.445Z,67.07
2019-03-01T08:40:54.418Z,64.57
2019-03-01T08:43:21.358Z,66.10
2019-03-01T08:45:50.674Z,65.03
2019-03-01T08:48:19.987Z,68.33
2019-03-01T08:50:49.342Z,72.50
2019-03-01T08:53:18.652Z,68.07
2019-03-01T08:55:47.988Z,68.43
2019-03-01T08:58:17.322Z,68.47
2019-03-01T09:00:46.764Z,62.17
2019-03-01T09:03:22.438Z,68.10
2019-03-01T09:05:49.549Z,72.67
2019-03-01T09:08:19.492Z,78.30
2019-03-01T09:10:48.126Z,93.07
2019-03-01T09:13:17.406Z,86.77
2019-03-01T09:15:49.493Z,106.43
2019-03-01T09:18:16.087Z,123.00
2019-03-01T09:20:45.400Z,115.93
2019-03-01T09:23:23.584Z,123.27
2019-03-01T09:25:44.761Z,126.00
2019-03-01T09:28:13.313Z,126.50
2019-03-01T09:30:44.413Z,115.93
2019-03-01T09:33:13.066Z,114.33
2019-03-01T09:35:50.454Z,113.90
2019-03-01T09:38:19.804Z,104.07
2019-03-01T09:40:49.246Z,111.53
2019-03-01T09:43:18.540Z,112.40
2019-03-01T09:45:48.822Z,100.27
2019-03-01T09:48:17.194Z,112.57
2019-03-01T09:50:46.530Z,99.67
2019-03-01T09:53:15.908Z,108.20
2019-03-01T09:55:45.214Z,95.43
2019-03-01T09:58:14.484Z,97.77
2019-03-01T10:00:55.983Z,105.10
2019-03-01T10:03:16.139Z,108.53
2019-03-01T10:05:45.454Z,123.43
2019-03-01T10:08:14.762Z,137.03
2019-03-01T10:10:44.062Z,128.97
2019-03-01T10:13:13.364Z,132.67
2019-03-01T10:15:42.660Z,139.80
2019-03-01T10:18:11.920Z,147.73
2019-03-01T10:20:41.201Z,138.27
2019-03-01T10:23:10.521Z,129.70
2019-03-01T10:25:39.816Z,126.90
2019-03-01T10:28:09.108Z,123.07
2019-03-01T10:30:38.372Z,127.43
2019-03-01T10:33:07.651Z,124.63
2019-03-01T10:35:36.943Z,123.43
2019-03-01T10:38:06.318Z,128.03
2019-03-01T10:40:35.606Z,129.67
2019-03-01T10:43:04.918Z,124.57
2019-03-01T10:45:34.179Z,132.80
2019-03-01T10:48:03.502Z,125.50
2019-03-01T10:50:32.806Z,141.33
2019-03-01T10:53:02.101Z,133.20
2019-03-01T10:55:31.489Z,128.93
2019-03-01T10:58:00.800Z,118.30
2019-03-01T11:00:30.123Z,123.60
2019-03-01T11:02:59.412Z,113.13
2019-03-01T11:05:28.798Z,102.37
2019-03-01T11:07:58.132Z,98.33
2019-03-01T11:10:29.664Z,89.57
2019-03-01T11:12:59.108Z,87.63
2019-03-01T11:15:28.409Z,88.80
2019-03-01T11:17:57.684Z,97.53
2019-03-01T11:20:27.066Z,96.73
2019-03-01T11:22:56.370Z,106.60
2019-03-01T11:25:25.708Z,102.73
2019-03-01T11:27:55.045Z,109.17
2019-03-01T11:30:26.528Z,110.73
2019-03-01T11:32:55.949Z,106.10
2019-03-01T11:35:25.237Z,94.47
2019-03-01T11:37:54.608Z,93.57
2019-03-01T11:40:31.919Z,107.53
2019-03-01T11:43:01.243Z,91.40
2019-03-01T11:45:30.542Z,62.43
2019-03-01T11:47:59.828Z,71.57
2019-03-01T11:50:29.109Z,62.20
2019-03-01T11:52:58.427Z,56.70
2019-03-01T11:55:27.823Z,54.60
2019-03-01T11:57:57.122Z,59.33
2019-03-01T12:00:26.402Z,53.40
2019-03-01T12:02:55.706Z,52.03
2019-03-01T12:05:25.002Z,35.43
2019-03-01T12:07:54.326Z,40.57
2019-03-01T12:10:24.571Z,34.93
2019-03-01T12:12:53.855Z,40.93
2019-03-01T12:15:23.196Z,43.17
2019-03-01T12:17:52.477Z,43.80
2019-03-01T12:20:22.288Z,35.70
2019-03-01T12:22:51.697Z,35.73
2019-03-01T12:25:21.045Z,39.30
2019-03-01T12:27:50.346Z,44.83
2019-03-01T12:30:21.008Z,42.90
2019-03-01T12:32:50.411Z,45.40
2019-03-01T12:35:19.727Z,48.20
2019-03-01T12:37:49.109Z,44.47
2019-03-01T12:40:23.358Z,45.00
2019-03-01T12:42:52.776Z,58.30
2019-03-01T12:45:22.052Z,55.50
2019-03-01T12:47:51.431Z,57.97
2019-03-01T12:50:40.124Z,57.60
2019-03-01T12:53:09.402Z,64.40
2019-03-01T12:55:38.712Z,57.13
2019-03-01T12:58:08.090Z,58.30
2019-03-01T13:00:37.468Z,55.90
2019-03-01T13:03:09.041Z,62.20
2019-03-01T13:05:36.118Z,61.53
2019-03-01T13:08:05.522Z,59.27
2019-03-01T13:10:36.790Z,66.50
2019-03-01T13:13:07.946Z,59.43
2019-03-01T13:15:33.659Z,51.40
2019-03-01T13:18:03.616Z,47.17
2019-03-01T13:20:33.743Z,42.00
2019-03-01T13:23:04.638Z,42.43
2019-03-01T13:25:31.036Z,42.50
2019-03-01T13:28:00.383Z,44.50
2019-03-01T13:30:32.651Z,43.00
2019-03-01T13:33:02.483Z,38.00
2019-03-01T13:35:28.451Z,31.83
2019-03-01T13:37:57.862Z,34.27
2019-03-01T13:40:27.150Z,34.63
2019-03-01T13:42:56.461Z,31.00
2019-03-01T13:45:25.762Z,30.43
2019-03-01T13:47:55.186Z,31.37
2019-03-01T13:50:24.543Z,32.90
2019-03-01T13:52:53.973Z,27.80
2019-03-01T13:55:23.882Z,28.43
2019-03-01T13:57:52.742Z,29.30
2019-03-01T14:00:22.119Z,26.20
2019-03-01T14:02:51.462Z,19.60
2019-03-01T14:05:20.775Z,25.80
2019-03-01T14:07:55.290Z,24.00
2019-03-01T14:10:20.298Z,29.20
2019-03-01T14:12:49.792Z,33.03
2019-03-01T14:15:19.317Z,33.33
2019-03-01T14:17:48.701Z,28.17
2019-03-01T14:20:20.557Z,28.27
2019-03-01T14:22:49.283Z,32.23
2019-03-01T14:25:17.667Z,29.90
2019-03-01T14:27:47.033Z,25.93
2019-03-01T14:30:18.114Z,22.67
2019-03-01T14:32:47.429Z,22.63
2019-03-01T14:35:16.814Z,21.27
2019-03-01T14:37:46.175Z,23.13
2019-03-01T14:40:19.072Z,15.80
2019-03-01T14:42:47.502Z,17.10
2019-03-01T14:45:19.774Z,19.43
2019-03-01T14:47:49.051Z,20.27
2019-03-01T14:50:20.002Z,16.33
2019-03-01T14:52:49.369Z,16.40
2019-03-01T14:55:23.202Z,15.37
2019-03-01T14:57:57.662Z,16.37
2019-03-01T15:00:34.152Z,17.47
2019-03-01T15:03:33.300Z,23.63
2019-03-01T15:06:02.675Z,19.10
2019-03-01T15:08:32.081Z,20.70
2019-03-01T15:11:07.993Z,16.47
2019-03-01T15:13:35.954Z,14.40
2019-03-01T15:16:06.003Z,13.30
2019-03-01T15:18:34.728Z,10.13
2019-03-01T15:21:04.316Z,18.60
2019-03-01T15:23:33.603Z,11.00
2019-03-01T15:26:02.932Z,16.67
2019-03-01T15:28:32.290Z,15.97
2019-03-01T15:31:01.639Z,15.67
2019-03-01T15:33:30.969Z,18.53
2019-03-01T15:36:00.336Z,19.97
2019-03-01T15:38:29.626Z,17.10
2019-03-01T15:40:59.011Z,13.07
2019-03-01T15:43:29.905Z,13.10
2019-03-01T15:45:58.225Z,9.63
2019-03-01T15:48:27.534Z,17.03
2019-03-01T15:50:58.970Z,14.03
2019-03-01T15:53:26.159Z,13.43
2019-03-01T15:55:55.436Z,14.13
2019-03-01T15:58:24.862Z,13.73
2019-03-01T16:00:54.273Z,12.77
2019-03-01T16:03:23.637Z,12.10
2019-03-01T16:05:52.961Z,11.77
2019-03-01T16:08:22.239Z,8.63
2019-03-01T16:10:51.538Z,16.73
2019-03-01T16:13:20.833Z,12.30
2019-03-01T16:15:50.104Z,7.67
2019-03-01T16:18:19.461Z,12.30
2019-03-01T16:20:48.884Z,10.37
2019-03-01T16:23:18.152Z,12.03
2019-03-01T16:25:47.446Z,12.90
2019-03-01T16:28:16.749Z,8.67
2019-03-01T16:30:46.113Z,9.83
2019-03-01T16:33:15.403Z,6.80
2019-03-01T16:35:48.342Z,9.10
2019-03-01T16:38:13.976Z,9.53
2019-03-01T16:40:43.380Z,9.97
2019-03-01T16:43:12.724Z,10.93
2019-03-01T16:45:42.020Z,13.43
2019-03-01T16:48:13.633Z,11.83
2019-03-01T16:50:43.757Z,9.87
2019-03-01T16:53:10.025Z,14.90
2019-03-01T16:55:39.343Z,11.40
2019-03-01T16:58:08.623Z,16.00
2019-03-01T17:00:38.047Z,12.90
2019-03-01T17:03:07.488Z,13.20
2019-03-01T17:05:38.750Z,13.87
2019-03-01T17:08:06.308Z,9.90
2019-03-01T17:10:35.697Z,11.00
2019-03-01T17:13:04.992Z,11.30
2019-03-01T17:15:34.288Z,15.00
2019-03-01T17:18:03.622Z,8.60
2019-03-01T17:20:37.497Z,10.20
2019-03-01T17:23:03.147Z,13.93
2019-03-01T17:25:31.566Z,15.67
2019-03-01T17:28:00.898Z,11.17
2019-03-01T17:30:30.216Z,12.17
2019-03-01T17:32:59.604Z,13.10
2019-03-01T17:35:28.947Z,11.53
2019-03-01T17:37:58.269Z,11.17
2019-03-01T17:40:29.247Z,14.80
2019-03-01T17:42:57.390Z,13.10
2019-03-01T17:45:26.437Z,13.47
2019-03-01T17:47:55.817Z,11.83
2019-03-01T17:50:25.145Z,12.63
2019-03-01T17:52:54.451Z,16.60
2019-03-01T17:55:24.457Z,18.30
2019-03-01T17:57:53.268Z,14.17
2019-03-01T18:00:26.707Z,10.23
2019-03-01T18:02:55.288Z,21.47
2019-03-01T18:05:24.629Z,15.83
2019-03-01T18:07:53.949Z,14.23
2019-03-01T18:10:23.340Z,14.30
2019-03-01T18:12:53.099Z,16.30
2019-03-01T18:15:23.534Z,16.63
2019-03-01T18:17:52.432Z,17.97
2019-03-01T18:20:20.733Z,13.67
2019-03-01T18:22:50.040Z,13.10
2019-03-01T18:25:22.539Z,15.77
2019-03-01T18:27:49.768Z,11.77
2019-03-01T18:30:19.855Z,13.07
2019-03-01T18:32:48.695Z,15.20
2019-03-01T18:35:17.988Z,12.07
2019-03-01T18:37:47.386Z,11.13
2019-03-01T18:40:17.477Z,13.57
2019-03-01T18:42:45.981Z,12.67
2019-03-01T18:45:16.479Z,13.10
2019-03-01T18:47:45.818Z,16.60
2019-03-01T18:50:17.846Z,22.13
2019-03-01T18:52:49.715Z,16.17
2019-03-01T18:55:17.445Z,19.07
2019-03-01T18:57:45.895Z,15.60
2019-03-01T19:00:20.036Z,15.17
2019-03-01T19:02:49.491Z,12.80
2019-03-01T19:05:18.888Z,18.10
2019-03-01T19:07:48.349Z,14.00
2019-03-01T19:10:18.203Z,14.03
2019-03-01T19:12:48.444Z,9.00
2019-03-01T19:15:16.898Z,12.63
2019-03-01T19:17:46.226Z,12.60
2019-03-01T19:20:18.128Z,11.73
2019-03-01T19:22:47.414Z,17.70
2019-03-01T19:25:16.728Z,12.73
2019-03-01T19:27:47.100Z,9.27
2019-03-01T19:30:17.182Z,9.00
2019-03-01T19:32:46.473Z,14.63
2019-03-01T19:35:15.779Z,17.67
2019-03-01T19:37:45.766Z,13.97
2019-03-01T19:40:15.848Z,13.53
2019-03-01T19:42:45.209Z,15.10
2019-03-01T19:45:15.438Z,13.20
2019-03-01T19:47:44.819Z,16.07
2019-03-01T19:50:16.165Z,12.37
2019-03-01T19:52:47.064Z,14.47
2019-03-01T19:55:15.067Z,12.50
2019-03-01T19:57:44.369Z,11.33
2019-03-01T20:00:56.611Z,18.20
2019-03-01T20:03:25.931Z,12.53
2019-03-01T20:05:55.438Z,11.70
2019-03-01T20:08:26.420Z,8.93
2019-03-01T20:10:54.113Z,12.17
2019-03-01T20:13:23.473Z,11.73
2019-03-01T20:15:52.902Z,16.87
2019-03-01T20:18:22.248Z,10.80
2019-03-01T20:20:57.700Z,13.73
2019-03-01T20:23:29.562Z,11.03
2019-03-01T20:26:02.287Z,10.57
2019-03-01T20:28:31.686Z,14.13
2019-03-01T20:31:01.607Z,12.57
2019-03-01T20:33:30.448Z,13.73
2019-03-01T20:35:59.759Z,8.70
2019-03-01T20:38:29.154Z,11.33
2019-03-01T20:40:59.835Z,15.17
2019-03-01T20:43:27.829Z,10.73
2019-03-01T20:45:57.147Z,12.43
2019-03-01T20:48:28.941Z,14.13
2019-03-01T20:50:55.713Z,13.70
2019-03-01T20:53:24.949Z,13.40
2019-03-01T20:55:54.290Z,13.57
2019-03-01T20:58:23.555Z,13.27
2019-03-01T21:00:52.819Z,16.63
2019-03-01T21:03:24.076Z,12.27
2019-03-01T21:05:51.379Z,16.00
2019-03-01T21:08:20.634Z,11.73
2019-03-01T21:10:50.861Z,10.97
2019-03-01T21:13:19.757Z,12.33
2019-03-01T21:15:49.048Z,11.10
2019-03-01T21:18:18.462Z,9.30
2019-03-01T21:20:50.514Z,10.93
2019-03-01T21:23:17.215Z,14.70
2019-03-01T21:25:46.512Z,12.17
2019-03-01T21:28:16.014Z,10.53
2019-03-01T21:30:45.715Z,11.47
2019-03-01T21:33:14.909Z,11.13
2019-03-01T21:35:50.722Z,17.30
2019-03-01T21:38:17.089Z,12.27
2019-03-01T21:40:47.021Z,12.13
2019-03-01T21:43:15.652Z,7.30
2019-03-01T21:45:44.919Z,14.20
2019-03-01T21:48:14.326Z,13.57
2019-03-01T21:50:43.625Z,8.00
2019-03-01T21:53:12.796Z,12.67
2019-03-01T21:55:42.101Z,12.17
2019-03-01T21:58:11.606Z,14.27
2019-03-01T22:00:41.228Z,13.77
2019-03-01T22:03:10.647Z,12.00
2019-03-01T22:05:40.201Z,13.93
2019-03-01T22:08:12.750Z,14.67
2019-03-01T22:10:39.110Z,14.33
2019-03-01T22:13:08.208Z,7.23
2019-03-01T22:15:37.971Z,12.73
2019-03-01T22:18:07.315Z,10.87
2019-03-01T22:20:36.760Z,11.80
2019-03-01T22:23:06.268Z,13.57
2019-03-01T22:25:37.975Z,9.40
2019-03-01T22:28:04.824Z,13.87
2019-03-01T22:30:34.119Z,12.70
2019-03-01T22:33:03.318Z,11.60
2019-03-01T22:35:32.601Z,11.67
2019-03-01T22:38:04.631Z,11.97
2019-03-01T22:40:31.217Z,14.53
2019-03-01T22:43:00.554Z,8.43
2019-03-01T22:45:29.901Z,10.93
2019-03-01T22:47:59.134Z,11.57
2019-03-01T22:50:28.578Z,12.60
2019-03-01T22:52:58.298Z,11.80
2019-03-01T22:55:27.497Z,11.13
2019-03-01T22:57:57.828Z,13.00
2019-03-01T23:01:10.199Z,13.70
2019-03-01T23:03:39.621Z,16.03
2019-03-01T23:06:11.683Z,10.30
2019-03-01T23:08:38.636Z,13.67
2019-03-01T23:11:08.262Z,9.53
2019-03-01T23:13:37.702Z,9.83
2019-03-01T23:16:07.060Z,10.13
2019-03-01T23:18:37.607Z,14.63
2019-03-01T23:21:05.959Z,15.60
2019-03-01T23:23:35.268Z,13.03
2019-03-01T23:26:04.592Z,12.73
2019-03-01T23:28:33.808Z,13.83
2019-03-01T23:31:03.648Z,13.70
2019-03-01T23:33:32.780Z,7.07
2019-03-01T23:36:01.925Z,12.37
2019-03-01T23:38:31.800Z,12.37
2019-03-01T23:41:01.512Z,12.03
2019-03-01T23:43:31.794Z,9.67
2019-03-01T23:46:00.551Z,10.77
2019-03-01T23:48:29.859Z,10.37
2019-03-01T23:50:59.425Z,13.33
2019-03-01T23:53:30.885Z,15.07
2019-03-01T23:55:58.562Z,11.27
2019-03-01T23:58:27.830Z,8.80
